createdAt,value
2017-10-25T00:00:05.171Z,0.00
2017-10-25T00:01:05.127Z,0.00
2017-10-25T00:02:05.092Z,0.00
2017-10-25T00:03:05.061Z,0.00
2017-10-25T00:04:05.025Z,0.00
2017-10-25T00:05:04.992Z,0.00
2017-10-25T00:06:04.950Z,0.00
2017-10-25T00:07:04.921Z,0.00
2017-10-25T00:08:04.888Z,0.00
2017-10-25T00:09:04.860Z,0.00
2017-10-25T00:10:04.810Z,0.00
2017-10-25T00:11:04.775Z,0.00
2017-10-25T00:12:04.737Z,0.00
2017-10-25T00:13:04.700Z,0.00
2017-10-25T00:14:04.670Z,0.00
2017-10-25T00:15:04.630Z,0.00
2017-10-25T00:16:04.596Z,0.00
2017-10-25T00:17:04.584Z,0.00
2017-10-25T00:18:04.525Z,0.00
2017-10-25T00:19:04.499Z,0.00
2017-10-25T00:20:04.455Z,0.00
2017-10-25T00:21:04.423Z,0.00
2017-10-25T00:22:04.388Z,0.00
2017-10-25T00:23:04.345Z,0.00
2017-10-25T00:24:04.311Z,0.00
2017-10-25T00:25:04.276Z,0.00
2017-10-25T00:26:04.242Z,0.00
2017-10-25T00:27:04.208Z,0.00
2017-10-25T00:28:04.174Z,0.00
2017-10-25T00:29:04.732Z,0.00
2017-10-25T00:30:04.098Z,0.00
2017-10-25T00:31:04.064Z,0.00
2017-10-25T00:32:04.035Z,0.00
2017-10-25T00:33:03.994Z,0.00
2017-10-25T00:34:03.967Z,0.00
2017-10-25T00:35:05.721Z,0.00
2017-10-25T00:36:03.890Z,0.00
2017-10-25T00:37:03.850Z,0.00
2017-10-25T00:38:03.821Z,0.00
2017-10-25T00:39:03.787Z,0.00
2017-10-25T00:40:03.743Z,0.00
2017-10-25T00:41:03.710Z,0.00
2017-10-25T00:42:03.682Z,0.00
2017-10-25T00:43:03.651Z,0.00
2017-10-25T00:44:03.614Z,0.00
2017-10-25T00:45:03.566Z,0.00
2017-10-25T00:46:03.529Z,0.00
2017-10-25T00:47:03.490Z,0.00
2017-10-25T00:48:03.462Z,0.00
2017-10-25T00:49:03.424Z,0.00
2017-10-25T00:50:03.386Z,0.00
2017-10-25T00:51:03.360Z,0.00
2017-10-25T00:52:03.314Z,0.00
2017-10-25T00:53:03.287Z,0.00
2017-10-25T00:54:03.245Z,0.00
2017-10-25T00:55:03.207Z,0.00
2017-10-25T00:56:03.174Z,0.00
2017-10-25T00:57:03.139Z,0.00
2017-10-25T00:58:03.101Z,0.00
2017-10-25T00:59:03.065Z,0.00
2017-10-25T01:00:03.030Z,0.00
2017-10-25T01:01:03.006Z,0.00
2017-10-25T01:02:02.959Z,0.00
2017-10-25T01:03:02.925Z,0.00
2017-10-25T01:04:02.889Z,0.00
2017-10-25T01:05:02.858Z,0.00
2017-10-25T01:06:02.817Z,0.00
2017-10-25T01:07:02.783Z,0.00
2017-10-25T01:08:02.746Z,0.00
2017-10-25T01:09:02.717Z,0.00
2017-10-25T01:10:02.681Z,0.00
2017-10-25T01:11:02.642Z,0.00
2017-10-25T01:12:02.604Z,0.00
2017-10-25T01:13:02.569Z,0.00
2017-10-25T01:14:02.533Z,0.00
2017-10-25T01:15:02.498Z,0.00
2017-10-25T01:16:02.467Z,0.00
2017-10-25T01:17:02.428Z,0.00
2017-10-25T01:18:02.401Z,0.00
2017-10-25T01:19:02.356Z,0.00
2017-10-25T01:20:02.325Z,0.00
2017-10-25T01:21:02.284Z,0.00
2017-10-25T01:22:02.250Z,0.00
2017-10-25T01:23:02.213Z,0.00
2017-10-25T01:24:02.181Z,0.00
2017-10-25T01:25:02.144Z,0.00
2017-10-25T01:26:02.107Z,0.00
2017-10-25T01:27:02.093Z,0.00
2017-10-25T01:28:02.046Z,0.00
2017-10-25T01:29:02.010Z,0.00
2017-10-25T01:30:01.965Z,0.00
2017-10-25T01:31:01.932Z,0.00
2017-10-25T01:32:01.901Z,0.00
2017-10-25T01:33:01.864Z,0.00
2017-10-25T01:34:01.826Z,0.00
2017-10-25T01:35:01.795Z,0.00
2017-10-25T01:36:01.765Z,0.00
2017-10-25T01:37:01.734Z,0.00
2017-10-25T01:38:01.683Z,0.00
2017-10-25T01:39:01.650Z,0.00
2017-10-25T01:40:01.627Z,0.00
2017-10-25T01:41:01.578Z,0.00
2017-10-25T01:42:01.541Z,0.00
2017-10-25T01:43:01.510Z,0.00
2017-10-25T01:44:01.473Z,0.00
2017-10-25T01:45:01.442Z,0.00
2017-10-25T01:46:01.419Z,0.00
2017-10-25T01:47:01.368Z,0.00
2017-10-25T01:48:01.329Z,0.00
2017-10-25T01:49:01.301Z,0.00
2017-10-25T01:50:01.261Z,0.00
2017-10-25T01:51:01.245Z,0.00
2017-10-25T01:52:01.190Z,0.00
2017-10-25T01:53:01.155Z,0.00
2017-10-25T01:54:01.117Z,0.00
2017-10-25T01:55:01.086Z,0.00
2017-10-25T01:56:01.054Z,0.00
2017-10-25T01:57:01.016Z,0.00
2017-10-25T01:58:00.975Z,0.00
2017-10-25T01:59:00.948Z,0.00
2017-10-25T02:00:00.907Z,0.00
2017-10-25T02:01:00.872Z,0.00
2017-10-25T02:02:00.833Z,0.00
2017-10-25T02:03:00.800Z,0.00
2017-10-25T02:04:00.763Z,0.00
2017-10-25T02:05:00.729Z,0.00
2017-10-25T02:06:00.698Z,0.00
2017-10-25T02:07:00.659Z,0.00
2017-10-25T02:08:00.628Z,0.00
2017-10-25T02:09:00.590Z,0.00
2017-10-25T02:10:00.553Z,0.00
2017-10-25T02:11:00.524Z,0.00
2017-10-25T02:12:00.483Z,0.00
2017-10-25T02:13:00.450Z,0.00
2017-10-25T02:14:00.412Z,0.00
2017-10-25T02:15:00.378Z,0.00
2017-10-25T02:16:00.341Z,0.00
2017-10-25T02:17:00.311Z,0.00
2017-10-25T02:18:00.271Z,0.00
2017-10-25T02:19:00.237Z,0.00
2017-10-25T02:20:00.208Z,0.00
2017-10-25T02:21:00.167Z,0.00
2017-10-25T02:22:00.130Z,0.00
2017-10-25T02:23:00.098Z,0.00
2017-10-25T02:24:00.064Z,0.00
2017-10-25T02:25:00.024Z,0.00
2017-10-25T02:25:59.990Z,0.00
2017-10-25T02:26:59.953Z,0.00
2017-10-25T02:27:59.920Z,0.00
2017-10-25T02:28:59.886Z,0.00
2017-10-25T02:29:59.850Z,0.00
2017-10-25T02:30:59.814Z,0.00
2017-10-25T02:31:59.784Z,0.00
2017-10-25T02:32:59.751Z,0.00
2017-10-25T02:33:59.711Z,0.00
2017-10-25T02:34:59.678Z,0.00
2017-10-25T02:35:59.638Z,0.00
2017-10-25T02:36:59.604Z,0.00
2017-10-25T02:37:59.567Z,0.00
2017-10-25T02:38:59.534Z,0.00
2017-10-25T02:39:59.504Z,0.00
2017-10-25T02:40:59.463Z,0.00
2017-10-25T02:41:59.454Z,0.00
2017-10-25T02:42:59.394Z,0.00
2017-10-25T02:43:59.358Z,0.00
2017-10-25T02:44:59.324Z,0.00
2017-10-25T02:45:59.287Z,0.00
2017-10-25T02:46:59.255Z,0.00
2017-10-25T02:47:59.218Z,0.00
2017-10-25T02:48:59.196Z,0.00
2017-10-25T02:49:59.157Z,0.00
2017-10-25T02:50:59.113Z,0.00
2017-10-25T02:51:59.077Z,0.00
2017-10-25T02:52:59.053Z,0.00
2017-10-25T02:53:59.009Z,0.00
2017-10-25T02:54:58.973Z,0.00
2017-10-25T02:55:58.950Z,0.00
2017-10-25T02:56:58.904Z,0.00
2017-10-25T02:57:58.865Z,0.00
2017-10-25T02:58:58.832Z,0.00
2017-10-25T02:59:58.802Z,0.00
2017-10-25T03:00:58.758Z,0.00
2017-10-25T03:01:58.727Z,0.00
2017-10-25T03:02:58.691Z,0.00
2017-10-25T03:03:58.658Z,0.00
2017-10-25T03:04:58.631Z,0.00
2017-10-25T03:05:58.585Z,0.00
2017-10-25T03:06:58.553Z,0.00
2017-10-25T03:07:58.515Z,0.00
2017-10-25T03:08:58.479Z,0.00
2017-10-25T03:09:58.442Z,0.00
2017-10-25T03:10:58.409Z,0.00
2017-10-25T03:11:58.375Z,0.00
2017-10-25T03:12:58.339Z,0.00
2017-10-25T03:13:58.304Z,0.00
2017-10-25T03:14:58.268Z,0.00
2017-10-25T03:15:58.242Z,0.00
2017-10-25T03:16:58.199Z,0.00
2017-10-25T03:17:58.168Z,0.00
2017-10-25T03:18:58.129Z,0.00
2017-10-25T03:19:58.094Z,0.00
2017-10-25T03:20:58.086Z,0.00
2017-10-25T03:21:58.029Z,0.00
2017-10-25T03:22:57.992Z,0.00
2017-10-25T03:23:57.955Z,0.00
2017-10-25T03:24:57.917Z,0.00
2017-10-25T03:25:57.883Z,0.00
2017-10-25T03:26:57.864Z,0.00
2017-10-25T03:27:57.817Z,0.00
2017-10-25T03:28:57.781Z,0.00
2017-10-25T03:29:57.746Z,0.00
2017-10-25T03:30:57.712Z,0.00
2017-10-25T03:31:57.676Z,0.00
2017-10-25T03:32:57.648Z,0.00
2017-10-25T03:33:57.601Z,0.00
2017-10-25T03:34:57.569Z,0.00
2017-10-25T03:35:57.531Z,0.00
2017-10-25T03:36:57.506Z,0.00
2017-10-25T03:37:57.461Z,0.00
2017-10-25T03:38:57.426Z,0.00
2017-10-25T03:39:57.391Z,0.00
2017-10-25T03:40:57.361Z,0.00
2017-10-25T03:41:57.321Z,0.00
2017-10-25T03:42:57.287Z,0.00
2017-10-25T03:43:57.256Z,0.00
2017-10-25T03:44:57.215Z,0.00
2017-10-25T03:45:57.188Z,0.00
2017-10-25T03:46:57.148Z,0.00
2017-10-25T03:47:57.115Z,0.00
2017-10-25T03:48:57.085Z,0.00
2017-10-25T03:49:57.042Z,0.00
2017-10-25T03:50:57.012Z,0.00
2017-10-25T03:51:56.972Z,0.00
2017-10-25T03:52:56.957Z,0.00
2017-10-25T03:53:56.905Z,0.00
2017-10-25T03:54:56.868Z,0.00
2017-10-25T03:55:56.848Z,0.00
2017-10-25T03:56:56.815Z,0.00
2017-10-25T03:57:56.763Z,0.00
2017-10-25T03:58:56.741Z,0.00
2017-10-25T03:59:56.694Z,0.00
2017-10-25T04:00:56.660Z,0.00
2017-10-25T04:01:56.623Z,0.00
2017-10-25T04:02:56.587Z,0.00
2017-10-25T04:03:56.553Z,0.00
2017-10-25T04:04:56.520Z,0.00
2017-10-25T04:05:56.483Z,0.00
2017-10-25T04:06:56.451Z,0.00
2017-10-25T04:07:56.413Z,0.00
2017-10-25T04:08:56.390Z,0.00
2017-10-25T04:09:56.342Z,0.00
2017-10-25T04:10:56.311Z,0.00
2017-10-25T04:11:56.277Z,0.00
2017-10-25T04:12:56.242Z,0.00
2017-10-25T04:13:56.202Z,0.00
2017-10-25T04:14:56.174Z,0.00
2017-10-25T04:15:56.136Z,0.00
2017-10-25T04:16:56.101Z,0.00
2017-10-25T04:17:56.065Z,0.00
2017-10-25T04:18:56.031Z,0.00
2017-10-25T04:19:55.996Z,0.00
2017-10-25T04:20:55.960Z,0.00
2017-10-25T04:21:55.928Z,0.00
2017-10-25T04:22:55.893Z,0.00
2017-10-25T04:23:55.857Z,0.00
2017-10-25T04:24:55.824Z,0.00
2017-10-25T04:25:55.787Z,0.00
2017-10-25T04:26:55.754Z,0.00
2017-10-25T04:27:55.718Z,0.00
2017-10-25T04:28:55.690Z,0.00
2017-10-25T04:29:55.655Z,0.00
2017-10-25T04:30:55.614Z,0.00
2017-10-25T04:31:55.578Z,0.00
2017-10-25T04:32:55.543Z,0.00
2017-10-25T04:33:55.507Z,0.00
2017-10-25T04:34:55.475Z,0.00
2017-10-25T04:35:55.442Z,0.00
2017-10-25T04:36:55.410Z,0.00
2017-10-25T04:37:55.381Z,0.00
2017-10-25T04:38:55.337Z,0.00
2017-10-25T04:39:55.302Z,0.00
2017-10-25T04:40:55.273Z,0.00
2017-10-25T04:41:55.231Z,0.00
2017-10-25T04:42:55.218Z,0.00
2017-10-25T04:43:55.161Z,0.00
2017-10-25T04:44:55.140Z,0.00
2017-10-25T04:45:55.097Z,0.00
2017-10-25T04:46:55.059Z,0.00
2017-10-25T04:47:55.030Z,0.00
2017-10-25T04:48:54.996Z,0.00
2017-10-25T04:49:54.968Z,0.00
2017-10-25T04:50:54.918Z,0.00
2017-10-25T04:51:54.887Z,0.00
2017-10-25T04:52:54.862Z,0.00
2017-10-25T04:53:54.822Z,0.00
2017-10-25T04:54:54.780Z,0.00
2017-10-25T04:55:54.745Z,0.00
2017-10-25T04:56:54.711Z,0.00
2017-10-25T04:57:54.676Z,0.00
2017-10-25T04:58:54.639Z,0.00
2017-10-25T04:59:54.609Z,0.00
2017-10-25T05:00:54.572Z,0.00
2017-10-25T05:01:54.534Z,0.00
2017-10-25T05:02:54.517Z,0.00
2017-10-25T05:03:54.467Z,0.00
2017-10-25T05:04:54.434Z,0.00
2017-10-25T05:05:54.399Z,0.00
2017-10-25T05:06:54.370Z,0.00
2017-10-25T05:07:54.332Z,0.00
2017-10-25T05:08:54.298Z,0.00
2017-10-25T05:09:54.275Z,0.00
2017-10-25T05:10:54.236Z,0.00
2017-10-25T05:11:54.196Z,0.00
2017-10-25T05:12:54.165Z,0.00
2017-10-25T05:13:54.125Z,0.00
2017-10-25T05:14:54.092Z,0.00
2017-10-25T05:15:54.059Z,0.00
2017-10-25T05:16:54.031Z,0.00
2017-10-25T05:17:53.986Z,0.00
2017-10-25T05:18:53.949Z,0.00
2017-10-25T05:19:53.917Z,0.00
2017-10-25T05:20:53.885Z,0.00
2017-10-25T05:21:53.847Z,0.00
2017-10-25T05:22:53.813Z,0.00
2017-10-25T05:23:53.778Z,0.00
2017-10-25T05:24:53.758Z,0.00
2017-10-25T05:25:53.709Z,0.00
2017-10-25T05:26:53.693Z,0.00
2017-10-25T05:27:53.639Z,0.00
2017-10-25T05:28:53.605Z,0.00
2017-10-25T05:29:53.570Z,0.00
2017-10-25T05:30:53.551Z,0.00
2017-10-25T05:31:53.503Z,0.00
2017-10-25T05:32:53.468Z,0.00
2017-10-25T05:33:53.434Z,0.00
2017-10-25T05:34:53.400Z,0.00
2017-10-25T05:35:53.366Z,0.00
2017-10-25T05:36:53.342Z,0.00
2017-10-25T05:37:53.294Z,0.00
2017-10-25T05:38:53.262Z,0.00
2017-10-25T05:39:53.227Z,0.00
2017-10-25T05:40:53.197Z,0.00
2017-10-25T05:41:53.173Z,0.00
2017-10-25T05:42:53.131Z,0.00
2017-10-25T05:43:53.092Z,0.00
2017-10-25T05:44:53.060Z,0.00
2017-10-25T05:45:53.022Z,0.00
2017-10-25T05:46:52.990Z,0.00
2017-10-25T05:47:52.949Z,0.00
2017-10-25T05:48:52.917Z,0.00
2017-10-25T05:49:52.883Z,0.00
2017-10-25T05:50:52.847Z,0.00
2017-10-25T05:51:52.814Z,0.00
2017-10-25T05:52:52.781Z,0.00
2017-10-25T05:53:52.743Z,0.00
2017-10-25T05:54:52.713Z,0.00
2017-10-25T05:55:52.694Z,0.00
2017-10-25T05:56:52.637Z,0.00
2017-10-25T05:57:52.611Z,0.00
2017-10-25T05:58:52.585Z,0.00
2017-10-25T05:59:52.540Z,0.00
2017-10-25T06:00:52.499Z,0.00
2017-10-25T06:01:52.465Z,0.00
2017-10-25T06:02:52.433Z,5.63
2017-10-25T06:03:52.399Z,5.63
2017-10-25T06:04:52.367Z,0.00
2017-10-25T06:05:52.324Z,5.63
2017-10-25T06:06:52.291Z,0.00
2017-10-25T06:07:52.262Z,5.63
2017-10-25T06:08:52.223Z,5.63
2017-10-25T06:09:52.195Z,5.63
2017-10-25T06:10:52.153Z,5.63
2017-10-25T06:11:52.119Z,5.63
2017-10-25T06:12:52.083Z,5.63
2017-10-25T06:13:52.049Z,5.63
2017-10-25T06:14:52.020Z,11.25
2017-10-25T06:15:51.989Z,11.25
2017-10-25T06:16:51.949Z,11.25
2017-10-25T06:17:51.909Z,11.25
2017-10-25T06:18:51.878Z,11.25
2017-10-25T06:19:51.842Z,11.25
2017-10-25T06:20:51.807Z,16.88
2017-10-25T06:21:51.801Z,16.88
2017-10-25T06:22:51.743Z,16.88
2017-10-25T06:23:51.708Z,16.88
2017-10-25T06:24:51.676Z,16.88
2017-10-25T06:25:51.636Z,16.88
2017-10-25T06:26:51.605Z,16.88
2017-10-25T06:27:51.574Z,16.88
2017-10-25T06:28:51.534Z,16.88
2017-10-25T06:29:51.497Z,11.25
2017-10-25T06:30:51.463Z,11.25
2017-10-25T06:31:51.452Z,16.88
2017-10-25T06:32:51.402Z,22.50
2017-10-25T06:33:51.365Z,28.13
2017-10-25T06:34:51.325Z,33.75
2017-10-25T06:35:51.289Z,33.75
2017-10-25T06:36:51.256Z,33.75
2017-10-25T06:37:51.235Z,33.75
2017-10-25T06:38:51.190Z,33.75
2017-10-25T06:39:51.166Z,33.75
2017-10-25T06:40:51.118Z,39.38
2017-10-25T06:41:51.881Z,33.75
2017-10-25T06:42:51.050Z,33.75
2017-10-25T06:43:51.016Z,28.13
2017-10-25T06:44:50.980Z,28.13
2017-10-25T06:45:50.947Z,28.13
2017-10-25T06:46:50.908Z,28.13
2017-10-25T06:47:50.883Z,39.38
2017-10-25T06:48:50.877Z,45.00
2017-10-25T06:49:50.806Z,45.00
2017-10-25T06:50:50.775Z,39.38
2017-10-25T06:51:50.739Z,39.38
2017-10-25T06:52:50.706Z,39.38
2017-10-25T06:53:50.672Z,39.38
2017-10-25T06:54:50.634Z,39.38
2017-10-25T06:55:50.611Z,45.00
2017-10-25T06:56:50.578Z,45.00
2017-10-25T06:57:50.543Z,50.63
2017-10-25T06:58:50.514Z,50.63
2017-10-25T06:59:50.475Z,56.25
2017-10-25T07:00:50.444Z,67.50
2017-10-25T07:01:50.396Z,78.75
2017-10-25T07:02:50.365Z,78.75
2017-10-25T07:03:50.333Z,84.38
2017-10-25T07:04:50.293Z,84.38
2017-10-25T07:05:50.265Z,84.38
2017-10-25T07:06:50.229Z,84.38
2017-10-25T07:07:50.192Z,84.38
2017-10-25T07:08:50.178Z,95.63
2017-10-25T07:09:50.123Z,101.25
2017-10-25T07:10:50.094Z,95.63
2017-10-25T07:11:50.052Z,101.25
2017-10-25T07:12:50.027Z,101.25
2017-10-25T07:13:50.000Z,112.50
2017-10-25T07:14:49.952Z,106.88
2017-10-25T07:15:49.919Z,95.63
2017-10-25T07:16:49.882Z,90.00
2017-10-25T07:17:49.848Z,90.00
2017-10-25T07:18:49.818Z,84.38
2017-10-25T07:19:50.799Z,95.63
2017-10-25T07:20:49.745Z,95.63
2017-10-25T07:21:49.713Z,101.25
2017-10-25T07:22:49.677Z,101.25
2017-10-25T07:23:49.653Z,90.00
2017-10-25T07:24:49.617Z,90.00
2017-10-25T07:25:49.576Z,90.00
2017-10-25T07:26:49.543Z,106.88
2017-10-25T07:27:49.513Z,118.13
2017-10-25T07:28:49.501Z,123.75
2017-10-25T07:29:49.442Z,123.75
2017-10-25T07:30:49.427Z,135.00
2017-10-25T07:31:49.400Z,151.88
2017-10-25T07:32:49.342Z,157.50
2017-10-25T07:33:49.309Z,163.13
2017-10-25T07:34:49.275Z,163.13
2017-10-25T07:35:49.238Z,163.13
2017-10-25T07:36:49.207Z,163.13
2017-10-25T07:37:49.173Z,174.38
2017-10-25T07:38:49.139Z,174.38
2017-10-25T07:39:49.105Z,196.88
2017-10-25T07:40:49.072Z,208.13
2017-10-25T07:41:49.036Z,219.38
2017-10-25T07:42:49.004Z,225.00
2017-10-25T07:43:48.976Z,230.63
2017-10-25T07:44:48.979Z,230.63
2017-10-25T07:45:48.930Z,236.25
2017-10-25T07:46:48.908Z,230.63
2017-10-25T07:47:48.859Z,230.63
2017-10-25T07:48:48.840Z,230.63
2017-10-25T07:49:48.777Z,230.63
2017-10-25T07:50:48.751Z,230.63
2017-10-25T07:51:48.735Z,230.63
2017-10-25T07:52:48.692Z,230.63
2017-10-25T07:53:48.641Z,236.25
2017-10-25T07:54:48.637Z,236.25
2017-10-25T07:55:48.601Z,247.50
2017-10-25T07:56:48.559Z,247.50
2017-10-25T07:57:48.520Z,253.13
2017-10-25T07:58:48.518Z,253.13
2017-10-25T07:59:48.466Z,253.13
2017-10-25T08:00:48.427Z,253.13
2017-10-25T08:01:48.391Z,258.75
2017-10-25T08:02:48.366Z,264.38
2017-10-25T08:03:48.331Z,270.00
2017-10-25T08:04:48.291Z,275.63
2017-10-25T08:05:48.274Z,281.25
2017-10-25T08:06:48.211Z,292.50
2017-10-25T08:07:48.174Z,286.88
2017-10-25T08:08:48.149Z,286.88
2017-10-25T08:09:48.126Z,286.88
2017-10-25T08:10:48.083Z,281.25
2017-10-25T08:11:48.045Z,281.25
2017-10-25T08:12:48.011Z,281.25
2017-10-25T08:13:47.987Z,275.63
2017-10-25T08:14:47.975Z,270.00
2017-10-25T08:15:47.917Z,270.00
2017-10-25T08:16:47.882Z,270.00
2017-10-25T08:17:47.853Z,270.00
2017-10-25T08:18:47.813Z,270.00
2017-10-25T08:19:47.799Z,275.63
2017-10-25T08:20:47.753Z,281.25
2017-10-25T08:21:47.735Z,292.50
2017-10-25T08:22:47.722Z,303.75
2017-10-25T08:23:47.661Z,303.75
2017-10-25T08:24:47.617Z,286.88
2017-10-25T08:25:47.596Z,281.25
2017-10-25T08:26:47.557Z,286.88
2017-10-25T08:27:47.517Z,292.50
2017-10-25T08:28:47.493Z,298.13
2017-10-25T08:29:47.454Z,303.75
2017-10-25T08:30:47.461Z,309.38
2017-10-25T08:31:47.392Z,309.38
2017-10-25T08:32:47.362Z,315.00
2017-10-25T08:33:47.331Z,320.63
2017-10-25T08:34:47.298Z,331.88
2017-10-25T08:35:47.316Z,337.50
2017-10-25T08:36:47.231Z,343.13
2017-10-25T08:37:47.265Z,343.13
2017-10-25T08:38:47.161Z,337.50
2017-10-25T08:39:47.150Z,337.50
2017-10-25T08:40:47.099Z,331.88
2017-10-25T08:41:47.076Z,326.25
2017-10-25T08:42:47.031Z,320.63
2017-10-25T08:43:46.998Z,315.00
2017-10-25T08:44:46.965Z,309.38
2017-10-25T08:45:46.933Z,303.75
2017-10-25T08:46:46.906Z,292.50
2017-10-25T08:47:46.870Z,298.13
2017-10-25T08:48:46.842Z,292.50
2017-10-25T08:49:46.808Z,298.13
2017-10-25T08:50:46.770Z,303.75
2017-10-25T08:51:46.747Z,303.75
2017-10-25T08:52:46.705Z,309.38
2017-10-25T08:53:46.675Z,320.63
2017-10-25T08:54:46.643Z,320.63
2017-10-25T08:55:46.622Z,331.88
2017-10-25T08:56:46.581Z,337.50
2017-10-25T08:57:46.544Z,337.50
2017-10-25T08:58:46.510Z,337.50
2017-10-25T08:59:46.479Z,343.13
2017-10-25T09:00:46.450Z,348.75
2017-10-25T09:01:46.418Z,360.00
2017-10-25T09:02:46.381Z,360.00
2017-10-25T09:03:46.348Z,360.00
2017-10-25T09:04:46.328Z,360.00
2017-10-25T09:05:46.288Z,354.38
2017-10-25T09:06:46.251Z,348.75
2017-10-25T09:07:46.221Z,343.13
2017-10-25T09:08:46.198Z,348.75
2017-10-25T09:09:46.157Z,360.00
2017-10-25T09:10:46.126Z,382.50
2017-10-25T09:11:46.097Z,382.50
2017-10-25T09:12:46.078Z,393.75
2017-10-25T09:13:46.035Z,399.38
2017-10-25T09:14:45.998Z,405.00
2017-10-25T09:15:45.963Z,393.75
2017-10-25T09:16:45.939Z,388.13
2017-10-25T09:17:45.907Z,382.50
2017-10-25T09:18:45.871Z,376.88
2017-10-25T09:19:45.834Z,365.63
2017-10-25T09:20:45.807Z,348.75
2017-10-25T09:21:45.771Z,343.13
2017-10-25T09:22:45.740Z,343.13
2017-10-25T09:23:45.718Z,348.75
2017-10-25T09:24:45.678Z,343.13
2017-10-25T09:25:45.646Z,326.25
2017-10-25T09:26:45.616Z,315.00
2017-10-25T09:27:45.587Z,315.00
2017-10-25T09:28:45.552Z,337.50
2017-10-25T09:29:45.523Z,365.63
2017-10-25T09:30:45.500Z,371.25
2017-10-25T09:31:45.457Z,371.25
2017-10-25T09:32:45.429Z,371.25
2017-10-25T09:33:45.389Z,365.63
2017-10-25T09:34:45.365Z,393.75
2017-10-25T09:35:45.323Z,371.25
2017-10-25T09:36:45.295Z,376.88
2017-10-25T09:37:45.260Z,388.13
2017-10-25T09:38:45.230Z,399.38
2017-10-25T09:39:45.201Z,399.38
2017-10-25T09:40:45.171Z,410.63
2017-10-25T09:41:45.133Z,410.63
2017-10-25T09:42:45.102Z,416.25
2017-10-25T09:43:45.072Z,433.13
2017-10-25T09:44:45.038Z,433.13
2017-10-25T09:45:45.009Z,444.38
2017-10-25T09:46:44.977Z,455.63
2017-10-25T09:47:44.944Z,461.25
2017-10-25T09:48:44.914Z,450.00
2017-10-25T09:49:44.879Z,433.13
2017-10-25T09:50:44.848Z,399.38
2017-10-25T09:51:44.814Z,371.25
2017-10-25T09:52:44.793Z,354.38
2017-10-25T09:53:44.766Z,337.50
2017-10-25T09:54:45.317Z,320.63
2017-10-25T09:55:44.702Z,337.50
2017-10-25T09:56:44.675Z,354.38
2017-10-25T09:57:44.631Z,354.38
2017-10-25T09:58:44.597Z,343.13
2017-10-25T09:59:44.569Z,315.00
2017-10-25T10:00:44.537Z,298.13
2017-10-25T10:01:44.507Z,292.50
2017-10-25T10:02:44.488Z,298.13
2017-10-25T10:03:44.444Z,309.38
2017-10-25T10:04:44.411Z,326.25
2017-10-25T10:05:44.383Z,331.88
2017-10-25T10:06:44.346Z,337.50
2017-10-25T10:07:44.320Z,337.50
2017-10-25T10:08:44.287Z,343.13
2017-10-25T10:09:44.255Z,348.75
2017-10-25T10:10:44.229Z,348.75
2017-10-25T10:11:44.199Z,315.00
2017-10-25T10:12:44.159Z,275.63
2017-10-25T10:13:44.128Z,236.25
2017-10-25T10:14:44.100Z,208.13
2017-10-25T10:15:44.065Z,191.25
2017-10-25T10:16:44.042Z,213.75
2017-10-25T10:17:44.008Z,286.88
2017-10-25T10:18:43.975Z,354.38
2017-10-25T10:19:43.948Z,382.50
2017-10-25T10:20:43.929Z,388.13
2017-10-25T10:21:43.878Z,382.50
2017-10-25T10:22:43.849Z,365.63
2017-10-25T10:23:43.827Z,371.25
2017-10-25T10:24:43.785Z,382.50
2017-10-25T10:25:43.774Z,399.38
2017-10-25T10:26:43.724Z,410.63
2017-10-25T10:27:43.702Z,416.25
2017-10-25T10:28:43.657Z,416.25
2017-10-25T10:29:43.642Z,410.63
2017-10-25T10:30:43.592Z,399.38
2017-10-25T10:31:43.563Z,388.13
2017-10-25T10:32:43.541Z,388.13
2017-10-25T10:33:43.502Z,388.13
2017-10-25T10:34:43.471Z,388.13
2017-10-25T10:35:43.440Z,393.75
2017-10-25T10:36:43.408Z,393.75
2017-10-25T10:37:43.383Z,393.75
2017-10-25T10:38:43.344Z,393.75
2017-10-25T10:39:43.313Z,399.38
2017-10-25T10:40:43.283Z,405.00
2017-10-25T10:41:43.277Z,421.88
2017-10-25T10:42:43.222Z,438.75
2017-10-25T10:43:43.187Z,438.75
2017-10-25T10:44:43.166Z,433.13
2017-10-25T10:45:43.123Z,421.88
2017-10-25T10:46:43.092Z,410.63
2017-10-25T10:47:43.106Z,405.00
2017-10-25T10:48:43.037Z,416.25
2017-10-25T10:49:43.042Z,427.50
2017-10-25T10:50:42.979Z,438.75
2017-10-25T10:51:42.952Z,438.75
2017-10-25T10:52:42.921Z,438.75
2017-10-25T10:53:42.898Z,438.75
2017-10-25T10:54:42.884Z,421.88
2017-10-25T10:55:42.818Z,444.38
2017-10-25T10:56:42.788Z,438.75
2017-10-25T10:57:42.749Z,438.75
2017-10-25T10:58:42.719Z,433.13
2017-10-25T10:59:42.690Z,433.13
2017-10-25T11:00:42.661Z,421.88
2017-10-25T11:01:42.625Z,416.25
2017-10-25T11:02:42.610Z,416.25
2017-10-25T11:03:42.600Z,382.50
2017-10-25T11:04:42.541Z,382.50
2017-10-25T11:05:42.549Z,360.00
2017-10-25T11:06:42.476Z,405.00
2017-10-25T11:07:42.442Z,421.88
2017-10-25T11:08:42.431Z,450.00
2017-10-25T11:09:42.395Z,472.50
2017-10-25T11:10:42.358Z,455.63
2017-10-25T11:11:42.320Z,371.25
2017-10-25T11:12:42.302Z,388.13
2017-10-25T11:13:42.258Z,438.75
2017-10-25T11:14:42.239Z,405.00
2017-10-25T11:15:42.193Z,455.63
2017-10-25T11:16:42.166Z,450.00
2017-10-25T11:17:42.128Z,466.88
2017-10-25T11:18:42.099Z,466.88
2017-10-25T11:19:42.079Z,466.88
2017-10-25T11:20:42.050Z,472.50
2017-10-25T11:21:42.007Z,450.00
2017-10-25T11:22:41.989Z,444.38
2017-10-25T11:23:41.950Z,483.75
2017-10-25T11:24:41.916Z,421.88
2017-10-25T11:25:41.897Z,416.25
2017-10-25T11:26:41.852Z,416.25
2017-10-25T11:27:41.829Z,416.25
2017-10-25T11:28:41.792Z,399.38
2017-10-25T11:29:41.759Z,382.50
2017-10-25T11:30:41.743Z,365.63
2017-10-25T11:31:41.698Z,365.63
2017-10-25T11:32:41.684Z,371.25
2017-10-25T11:33:41.644Z,343.13
2017-10-25T11:34:41.603Z,343.13
2017-10-25T11:35:41.580Z,348.75
2017-10-25T11:36:41.543Z,348.75
2017-10-25T11:37:41.522Z,354.38
2017-10-25T11:38:41.484Z,354.38
2017-10-25T11:39:41.453Z,365.63
2017-10-25T11:40:41.420Z,365.63
2017-10-25T11:41:41.385Z,348.75
2017-10-25T11:42:41.356Z,331.88
2017-10-25T11:43:41.325Z,331.88
2017-10-25T11:44:41.296Z,348.75
2017-10-25T11:45:41.265Z,348.75
2017-10-25T11:46:41.243Z,326.25
2017-10-25T11:47:41.207Z,309.38
2017-10-25T11:48:41.186Z,315.00
2017-10-25T11:49:41.146Z,320.63
2017-10-25T11:50:41.127Z,309.38
2017-10-25T11:51:41.080Z,309.38
2017-10-25T11:52:41.052Z,303.75
2017-10-25T11:53:41.014Z,275.63
2017-10-25T11:54:40.991Z,236.25
2017-10-25T11:55:40.954Z,202.50
2017-10-25T11:56:40.930Z,180.00
2017-10-25T11:57:40.921Z,208.13
2017-10-25T11:58:40.903Z,208.13
2017-10-25T11:59:40.830Z,236.25
2017-10-25T12:00:40.798Z,298.13
2017-10-25T12:01:40.766Z,258.75
2017-10-25T12:02:40.742Z,303.75
2017-10-25T12:03:40.718Z,286.88
2017-10-25T12:04:40.674Z,264.38
2017-10-25T12:05:40.645Z,281.25
2017-10-25T12:06:40.612Z,286.88
2017-10-25T12:07:40.580Z,275.63
2017-10-25T12:08:40.549Z,275.63
2017-10-25T12:09:40.527Z,275.63
2017-10-25T12:10:40.491Z,281.25
2017-10-25T12:11:40.463Z,281.25
2017-10-25T12:12:40.429Z,298.13
2017-10-25T12:13:40.400Z,371.25
2017-10-25T12:14:40.378Z,376.88
2017-10-25T12:15:40.339Z,376.88
2017-10-25T12:16:40.302Z,388.13
2017-10-25T12:17:40.272Z,365.63
2017-10-25T12:18:40.247Z,298.13
2017-10-25T12:19:40.213Z,348.75
2017-10-25T12:20:40.182Z,320.63
2017-10-25T12:21:40.149Z,365.63
2017-10-25T12:22:40.124Z,388.13
2017-10-25T12:23:40.085Z,405.00
2017-10-25T12:24:40.054Z,376.88
2017-10-25T12:25:40.027Z,382.50
2017-10-25T12:26:40.004Z,382.50
2017-10-25T12:27:39.961Z,433.13
2017-10-25T12:28:39.935Z,433.13
2017-10-25T12:29:39.896Z,438.75
2017-10-25T12:30:39.870Z,438.75
2017-10-25T12:31:39.836Z,433.13
2017-10-25T12:32:39.810Z,421.88
2017-10-25T12:33:39.775Z,410.63
2017-10-25T12:34:39.754Z,371.25
2017-10-25T12:35:39.736Z,405.00
2017-10-25T12:36:39.689Z,405.00
2017-10-25T12:37:39.650Z,371.25
2017-10-25T12:38:39.623Z,348.75
2017-10-25T12:39:39.599Z,371.25
2017-10-25T12:40:39.558Z,343.13
2017-10-25T12:41:39.530Z,393.75
2017-10-25T12:42:39.503Z,399.38
2017-10-25T12:43:39.468Z,393.75
2017-10-25T12:44:39.436Z,365.63
2017-10-25T12:45:39.410Z,360.00
2017-10-25T12:46:39.392Z,365.63
2017-10-25T12:47:39.341Z,309.38
2017-10-25T12:48:39.314Z,360.00
2017-10-25T12:49:39.292Z,292.50
2017-10-25T12:50:39.252Z,348.75
2017-10-25T12:51:39.223Z,275.63
2017-10-25T12:52:39.193Z,281.25